createdAt,value
2023-11-12T00:01:59.006Z,104.50
2023-11-12T00:04:26.408Z,100.63
2023-11-12T00:06:53.551Z,110.13
2023-11-12T00:09:20.411Z,146.02
2023-11-12T00:11:47.158Z,98.32
2023-11-12T00:14:13.991Z,102.20
2023-11-12T00:16:40.760Z,102.88
2023-11-12T00:19:07.402Z,105.18
2023-11-12T00:21:34.012Z,121.18
2023-11-12T00:24:01.126Z,95.45
2023-11-12T00:26:29.409Z,102.18
2023-11-12T00:28:56.892Z,101.95
2023-11-12T00:31:23.773Z,93.72
2023-11-12T00:33:50.496Z,117.43
2023-11-12T00:36:17.331Z,136.48
2023-11-12T00:38:44.231Z,103.45
2023-11-12T00:41:11.599Z,101.13
2023-11-12T00:43:38.668Z,91.93
2023-11-12T00:46:05.640Z,115.40
2023-11-12T00:48:32.922Z,103.93
2023-11-12T00:50:59.922Z,102.32
2023-11-12T00:53:28.310Z,94.10
2023-11-12T00:55:55.007Z,111.20
2023-11-12T00:58:21.887Z,108.18
2023-11-12T01:00:48.563Z,107.93
2023-11-12T01:03:15.353Z,142.23
2023-11-12T01:05:42.102Z,109.00
2023-11-12T01:08:09.000Z,105.60
2023-11-12T01:10:35.799Z,100.40
2023-11-12T01:13:02.502Z,99.60
2023-11-12T01:15:30.520Z,108.13
2023-11-12T01:17:58.396Z,106.00
2023-11-12T01:20:25.153Z,104.22
2023-11-12T01:22:54.789Z,102.90
2023-11-12T01:25:21.528Z,112.55
2023-11-12T01:27:48.244Z,106.20
2023-11-12T01:30:15.211Z,146.38
2023-11-12T01:32:41.932Z,102.68
2023-11-12T01:35:08.803Z,78.55
2023-11-12T01:37:36.185Z,93.03
2023-11-12T01:40:02.895Z,90.93
2023-11-12T01:42:30.154Z,112.88
2023-11-12T01:44:57.552Z,84.28
2023-11-12T01:47:24.343Z,92.82
2023-11-12T01:49:51.706Z,92.82
2023-11-12T01:52:19.000Z,95.25
2023-11-12T01:54:45.887Z,101.55
2023-11-12T01:57:13.036Z,104.03
2023-11-12T01:59:40.106Z,98.45
2023-11-12T02:05:10.090Z,93.40
2023-11-12T02:07:43.525Z,96.78
2023-11-12T02:12:40.974Z,97.53
2023-11-12T02:15:07.986Z,99.68
2023-11-12T02:17:35.811Z,90.05
2023-11-12T02:20:03.159Z,98.97
2023-11-12T02:22:29.878Z,95.70
2023-11-12T02:24:56.533Z,100.15
2023-11-12T02:27:23.325Z,139.63
2023-11-12T02:29:50.593Z,97.75
2023-11-12T02:32:18.023Z,88.15
2023-11-12T02:34:44.704Z,97.93
2023-11-12T02:37:12.077Z,102.03
2023-11-12T02:39:38.801Z,91.80
2023-11-12T02:42:07.486Z,89.85
2023-11-12T02:44:34.459Z,97.32
2023-11-12T02:47:01.130Z,82.40
2023-11-12T02:49:48.064Z,104.88
2023-11-12T02:52:14.742Z,102.07
2023-11-12T02:54:41.469Z,88.15
2023-11-12T02:57:08.857Z,83.07
2023-11-12T02:59:36.071Z,90.22
2023-11-12T03:02:02.903Z,102.82
2023-11-12T03:04:29.801Z,92.78
2023-11-12T03:06:57.537Z,89.22
2023-11-12T03:09:25.730Z,126.45
2023-11-12T03:11:52.435Z,92.40
2023-11-12T03:14:20.374Z,72.22
2023-11-12T03:16:48.530Z,83.97
2023-11-12T03:19:16.121Z,84.45
2023-11-12T03:21:42.926Z,89.03
2023-11-12T03:24:12.765Z,77.50
2023-11-12T03:26:39.643Z,76.15
2023-11-12T03:29:06.368Z,83.07
2023-11-12T03:31:33.031Z,86.32
2023-11-12T03:33:59.725Z,96.95
2023-11-12T03:36:26.480Z,108.20
2023-11-12T03:38:53.221Z,74.22
2023-11-12T03:41:19.848Z,87.72
2023-11-12T03:43:46.776Z,88.45
2023-11-12T03:46:13.597Z,92.07
2023-11-12T03:48:40.507Z,93.53
2023-11-12T03:51:08.099Z,79.15
2023-11-12T03:53:34.898Z,80.95
2023-11-12T03:56:01.588Z,88.28
2023-11-12T03:58:28.264Z,84.53
2023-11-12T04:00:55.030Z,85.43
2023-11-12T04:03:22.463Z,126.25
2023-11-12T04:05:49.416Z,88.60
2023-11-12T04:08:16.099Z,76.43
2023-11-12T04:10:42.902Z,96.80
2023-11-12T04:13:09.616Z,82.03
2023-11-12T04:15:36.576Z,92.30
2023-11-12T04:18:03.366Z,79.88
2023-11-12T04:20:31.573Z,80.85
2023-11-12T04:22:59.307Z,84.97
2023-11-12T04:25:26.455Z,80.90
2023-11-12T04:27:53.242Z,82.57
2023-11-12T04:30:19.893Z,120.95
2023-11-12T04:32:46.638Z,81.55
2023-11-12T04:35:13.353Z,64.35
2023-11-12T04:37:40.720Z,73.93
2023-11-12T04:40:10.740Z,73.75
2023-11-12T04:42:37.550Z,84.93
2023-11-12T04:45:04.882Z,74.85
2023-11-12T04:47:31.808Z,74.00
2023-11-12T04:49:58.802Z,81.43
2023-11-12T04:52:25.500Z,83.45
2023-11-12T04:54:52.245Z,83.55
2023-11-12T04:57:19.695Z,107.75
2023-11-12T04:59:46.500Z,80.22
2023-11-12T05:02:13.658Z,72.03
2023-11-12T05:04:42.030Z,76.93
2023-11-12T05:07:11.752Z,89.88
2023-11-12T05:09:38.581Z,81.00
2023-11-12T05:12:05.462Z,77.18
2023-11-12T05:14:32.351Z,76.78
2023-11-12T05:16:59.180Z,74.07
2023-11-12T05:19:25.973Z,81.72
2023-11-12T05:21:52.680Z,83.18
2023-11-12T05:24:20.543Z,96.35
2023-11-12T05:26:47.364Z,69.47
2023-11-12T05:29:14.024Z,76.03
2023-11-12T05:31:40.945Z,72.15
2023-11-12T05:34:07.625Z,75.53
2023-11-12T05:36:34.386Z,86.45
2023-11-12T05:39:01.085Z,72.18
2023-11-12T05:41:27.730Z,70.50
2023-11-12T05:43:54.514Z,71.38
2023-11-12T05:46:21.255Z,76.13
2023-11-12T05:48:48.098Z,82.63
2023-11-12T05:51:14.771Z,79.30
2023-11-12T05:53:42.547Z,69.82
2023-11-12T05:56:09.882Z,70.40
2023-11-12T05:58:36.618Z,80.15
2023-11-12T06:01:03.578Z,70.47
2023-11-12T06:03:31.254Z,97.80
2023-11-12T06:05:57.972Z,72.28
2023-11-12T06:08:24.903Z,66.82
2023-11-12T06:10:51.834Z,70.35
2023-11-12T06:13:18.560Z,74.68
2023-11-12T06:15:45.508Z,74.78
2023-11-12T06:18:12.563Z,68.10
2023-11-12T06:20:39.551Z,66.70
2023-11-12T06:23:07.849Z,72.07
2023-11-12T06:25:34.567Z,59.30
2023-11-12T06:28:01.376Z,66.28
2023-11-12T06:30:28.149Z,100.18
2023-11-12T06:32:54.847Z,54.20
2023-11-12T06:35:21.628Z,50.28
2023-11-12T06:37:48.221Z,48.90
2023-11-12T06:40:15.505Z,68.82
2023-11-12T06:42:44.765Z,55.60
2023-11-12T06:45:11.770Z,65.25
2023-11-12T06:47:38.598Z,64.47
2023-11-12T06:50:06.183Z,68.82
2023-11-12T06:52:35.967Z,68.88
2023-11-12T06:55:04.720Z,57.60
2023-11-12T06:57:31.558Z,94.43
2023-11-12T06:59:59.125Z,59.45
2023-11-12T07:02:25.875Z,61.50
2023-11-12T07:04:52.644Z,51.90
2023-11-12T07:07:19.505Z,68.88
2023-11-12T07:09:47.727Z,53.45
2023-11-12T07:12:16.387Z,55.60
2023-11-12T07:14:43.785Z,50.13
2023-11-12T07:17:14.210Z,58.85
2023-11-12T07:19:44.414Z,60.85
2023-11-12T07:22:11.479Z,63.28
2023-11-12T07:24:38.686Z,48.72
2023-11-12T07:27:05.483Z,51.15
2023-11-12T07:29:33.985Z,50.40
2023-11-12T07:32:01.094Z,49.58
2023-11-12T07:34:27.858Z,48.72
2023-11-12T07:36:54.569Z,63.55
2023-11-12T07:39:21.878Z,82.30
2023-11-12T07:41:48.537Z,44.70
2023-11-12T07:44:22.895Z,48.97
2023-11-12T07:46:49.597Z,47.70
2023-11-12T07:49:16.336Z,38.70
2023-11-12T07:51:43.011Z,36.25
2023-11-12T07:54:09.669Z,45.28
2023-11-12T07:56:41.773Z,48.55
2023-11-12T07:59:09.643Z,49.63
2023-11-12T08:01:36.746Z,45.00
2023-11-12T08:04:03.693Z,66.03
2023-11-12T08:06:30.532Z,75.80
2023-11-12T08:08:59.571Z,36.67
2023-11-12T08:11:28.586Z,40.92
2023-11-12T08:13:56.285Z,38.20
2023-11-12T08:16:23.023Z,41.65
2023-11-12T08:21:16.407Z,37.05
2023-11-12T08:23:43.106Z,50.78
2023-11-12T08:26:09.737Z,51.83
2023-11-12T08:28:36.397Z,53.65
2023-11-12T08:31:03.097Z,43.90
2023-11-12T08:33:29.774Z,75.72
2023-11-12T08:35:56.404Z,38.72
2023-11-12T08:38:23.149Z,36.88
2023-11-12T08:40:50.042Z,43.78
2023-11-12T08:43:16.704Z,53.88
2023-11-12T08:45:44.023Z,31.10
2023-11-12T08:48:10.819Z,33.70
2023-11-12T08:50:37.572Z,38.60
2023-11-12T08:53:04.261Z,43.10
2023-11-12T08:55:31.521Z,47.35
2023-11-12T08:57:58.274Z,47.35
2023-11-12T09:00:25.193Z,66.82
2023-11-12T09:02:52.468Z,35.72
2023-11-12T09:05:20.062Z,34.10
2023-11-12T09:07:48.004Z,27.35
2023-11-12T09:10:15.014Z,30.08
2023-11-12T09:12:41.777Z,40.60
2023-11-12T09:15:10.994Z,36.20
2023-11-12T09:17:37.952Z,22.48
2023-11-12T09:20:05.414Z,46.85
2023-11-12T09:22:32.739Z,28.10
2023-11-12T09:25:08.939Z,42.13
2023-11-12T09:27:38.429Z,47.95
2023-11-12T09:30:06.116Z,34.17
2023-11-12T09:32:33.194Z,26.00
2023-11-12T09:35:00.135Z,29.20
2023-11-12T09:37:26.815Z,31.95
2023-11-12T09:39:55.363Z,31.58
2023-11-12T09:42:23.907Z,44.13
2023-11-12T09:44:51.345Z,23.75
2023-11-12T09:47:24.507Z,39.65
2023-11-12T09:49:51.423Z,24.27
2023-11-12T09:52:18.325Z,51.50
2023-11-12T09:54:46.420Z,36.45
2023-11-12T09:57:13.204Z,38.65
2023-11-12T09:59:41.261Z,26.67
2023-11-12T10:02:09.703Z,37.70
2023-11-12T10:04:36.601Z,36.30
2023-11-12T10:07:05.432Z,36.72
2023-11-12T10:09:32.630Z,74.70
2023-11-12T10:12:05.156Z,30.27
2023-11-12T10:14:32.108Z,25.83
2023-11-12T10:17:06.595Z,32.22
2023-11-12T10:19:34.525Z,34.67
2023-11-12T10:22:02.872Z,46.13
2023-11-12T10:24:30.095Z,65.32
2023-11-12T10:27:06.524Z,21.42
2023-11-12T10:29:33.296Z,37.70
2023-11-12T10:32:00.441Z,24.33
2023-11-12T10:34:28.734Z,31.63
2023-11-12T10:36:58.922Z,28.50
2023-11-12T10:39:33.462Z,68.13
2023-11-12T10:42:01.933Z,34.35
2023-11-12T10:44:28.633Z,28.67
2023-11-12T10:46:56.648Z,20.40
2023-11-12T10:49:24.063Z,22.13
2023-11-12T10:51:51.107Z,31.02
2023-11-12T10:54:18.309Z,25.90
2023-11-12T10:56:45.124Z,27.35
2023-11-12T10:59:14.462Z,22.77
2023-11-12T11:01:41.196Z,20.80
2023-11-12T11:04:10.290Z,35.67
2023-11-12T11:06:37.658Z,62.58
2023-11-12T11:09:04.672Z,26.17
2023-11-12T11:11:31.389Z,40.70
2023-11-12T11:14:18.016Z,29.25
2023-11-12T11:16:48.857Z,34.95
2023-11-12T11:19:15.771Z,42.22
2023-11-12T11:21:43.347Z,53.70
2023-11-12T11:24:10.337Z,48.00
2023-11-12T11:26:40.764Z,33.30
2023-11-12T11:29:15.133Z,38.53
2023-11-12T11:31:57.112Z,33.55
2023-11-12T11:34:44.737Z,36.20
2023-11-12T11:37:11.502Z,38.00
2023-11-12T11:39:39.250Z,78.25
2023-11-12T11:42:07.608Z,36.60
2023-11-12T11:44:44.027Z,35.58
2023-11-12T11:47:15.860Z,32.28
2023-11-12T11:49:47.324Z,23.65
2023-11-12T11:52:18.272Z,35.33
2023-11-12T11:54:45.535Z,49.90
2023-11-12T11:57:14.927Z,37.67
2023-11-12T11:59:41.722Z,37.80
2023-11-12T12:02:16.880Z,45.47
2023-11-12T12:04:50.152Z,34.95
2023-11-12T12:07:24.429Z,44.20
2023-11-12T12:09:52.055Z,39.17
2023-11-12T12:12:18.912Z,37.63
2023-11-12T12:14:45.658Z,55.47
2023-11-12T12:17:12.512Z,35.35
2023-11-12T12:19:39.248Z,41.05
2023-11-12T12:22:06.266Z,49.70
2023-11-12T12:24:36.772Z,76.10
2023-11-12T12:27:07.937Z,38.05
2023-11-12T12:29:36.035Z,55.45
2023-11-12T12:32:12.662Z,34.35
2023-11-12T12:34:40.371Z,47.63
2023-11-12T12:37:07.971Z,57.22
2023-11-12T12:40:00.682Z,89.40
2023-11-12T12:42:29.035Z,69.13
2023-11-12T12:44:57.207Z,41.53
2023-11-12T12:47:31.969Z,29.42
2023-11-12T12:49:59.813Z,52.03
2023-11-12T12:52:26.861Z,42.85
2023-11-12T12:54:54.638Z,50.15
2023-11-12T12:57:25.149Z,47.58
2023-11-12T12:59:52.196Z,39.00
2023-11-12T13:02:18.850Z,43.05
2023-11-12T13:04:51.804Z,43.05
2023-11-12T13:07:20.589Z,54.08
2023-11-12T13:09:47.336Z,56.67
2023-11-12T13:12:14.011Z,56.70
2023-11-12T13:14:42.136Z,45.25
2023-11-12T13:17:09.664Z,49.28
2023-11-12T13:19:36.715Z,47.67
2023-11-12T13:22:04.798Z,49.53
2023-11-12T13:24:32.047Z,74.10
2023-11-12T13:26:59.227Z,42.10
2023-11-12T13:29:28.398Z,40.05
2023-11-12T13:31:58.507Z,48.90
2023-11-12T13:34:25.388Z,52.85
2023-11-12T13:36:52.722Z,49.92
2023-11-12T13:39:19.448Z,54.53
2023-11-12T13:41:49.388Z,67.80
2023-11-12T13:44:16.625Z,47.85
2023-11-12T13:46:44.274Z,56.67
2023-11-12T13:49:11.208Z,60.75
2023-11-12T13:51:42.202Z,82.65
2023-11-12T13:54:11.705Z,53.63
2023-11-12T13:56:40.269Z,38.95
2023-11-12T13:59:06.977Z,43.92
2023-11-12T14:01:33.836Z,53.10
2023-11-12T14:04:01.245Z,55.50
2023-11-12T14:06:28.470Z,51.67
2023-11-12T14:08:56.366Z,44.15
2023-11-12T14:11:23.803Z,47.85
2023-11-12T14:13:52.095Z,40.55
2023-11-12T14:16:18.878Z,43.95
2023-11-12T14:18:46.399Z,59.92
2023-11-12T14:21:13.158Z,42.55
2023-11-12T14:23:41.181Z,37.30
2023-11-12T14:26:09.609Z,46.35
2023-11-12T14:28:36.915Z,49.85
2023-11-12T14:31:08.227Z,62.42
2023-11-12T14:33:35.301Z,81.43
2023-11-12T14:36:02.512Z,54.75
2023-11-12T14:38:29.295Z,48.22
2023-11-12T14:40:55.982Z,41.65
2023-11-12T14:43:23.052Z,48.08
2023-11-12T14:45:49.992Z,55.03
2023-11-12T14:48:18.024Z,44.42
2023-11-12T14:50:44.930Z,42.10
2023-11-12T14:53:13.074Z,43.40
2023-11-12T14:55:41.722Z,68.13
2023-11-12T14:58:08.554Z,58.42
2023-11-12T15:00:36.457Z,83.00
2023-11-12T15:03:06.836Z,61.83
2023-11-12T15:05:34.371Z,53.17
2023-11-12T15:08:01.148Z,42.50
2023-11-12T15:10:29.589Z,36.38
2023-11-12T15:12:56.512Z,48.67
2023-11-12T15:15:23.405Z,45.13
2023-11-12T15:17:53.058Z,40.97
2023-11-12T15:20:20.281Z,53.35
2023-11-12T15:22:47.326Z,46.58
2023-11-12T15:25:17.361Z,57.08
2023-11-12T15:27:46.095Z,84.63
2023-11-12T15:30:16.584Z,56.05
2023-11-12T15:32:43.921Z,38.90
2023-11-12T15:35:11.028Z,50.55
2023-11-12T15:37:38.491Z,69.70
2023-11-12T15:40:15.279Z,66.75
2023-11-12T15:42:42.919Z,124.00
2023-11-12T15:45:11.563Z,51.42
2023-11-12T15:47:39.096Z,62.53
2023-11-12T15:50:07.005Z,53.47
2023-11-12T15:52:33.723Z,63.15
2023-11-12T15:55:01.120Z,65.03
2023-11-12T15:57:27.996Z,61.78
2023-11-12T15:59:54.662Z,48.83
2023-11-12T16:02:21.429Z,51.55
2023-11-12T16:04:48.238Z,51.00
2023-11-12T16:07:16.052Z,85.13
2023-11-12T16:09:43.023Z,78.82
2023-11-12T16:12:09.812Z,46.80
2023-11-12T16:14:37.563Z,59.03
2023-11-12T16:17:04.223Z,48.03
2023-11-12T16:19:30.837Z,35.47
2023-11-12T16:21:57.837Z,50.03
2023-11-12T16:24:24.729Z,47.33
2023-11-12T16:26:53.232Z,48.85
2023-11-12T16:29:20.140Z,38.67
2023-11-12T16:31:46.877Z,44.85
2023-11-12T16:34:13.643Z,56.05
2023-11-12T16:36:40.282Z,73.20
2023-11-12T16:39:07.808Z,44.85
2023-11-12T16:41:34.470Z,43.15
2023-11-12T16:44:01.602Z,49.33
2023-11-12T16:46:32.606Z,47.13
2023-11-12T16:48:59.304Z,62.50
2023-11-12T16:51:26.479Z,48.33
2023-11-12T16:53:53.308Z,51.10
2023-11-12T16:56:21.083Z,51.75
2023-11-12T16:58:48.555Z,52.25
2023-11-12T17:01:15.474Z,64.35
2023-11-12T17:03:42.589Z,88.45
2023-11-12T17:06:10.684Z,44.78
2023-11-12T17:08:37.655Z,49.33
2023-11-12T17:11:06.844Z,48.60
2023-11-12T17:13:34.306Z,49.05
2023-11-12T17:16:01.080Z,59.80
2023-11-12T17:18:28.882Z,39.97
2023-11-12T17:20:55.505Z,39.85
2023-11-12T17:23:22.876Z,48.47
2023-11-12T17:25:49.639Z,47.10
2023-11-12T17:28:16.253Z,55.08
2023-11-12T17:30:43.021Z,80.85
2023-11-12T17:33:09.754Z,48.88
2023-11-12T17:35:37.717Z,41.10
2023-11-12T17:38:04.349Z,40.42
2023-11-12T17:40:31.201Z,48.20
2023-11-12T17:42:57.861Z,63.65
2023-11-12T17:45:24.625Z,62.72
2023-11-12T17:47:52.468Z,52.00
2023-11-12T17:50:22.650Z,46.13
2023-11-12T17:52:49.370Z,52.75
2023-11-12T17:55:16.060Z,91.82
2023-11-12T17:57:42.892Z,81.60
2023-11-12T18:00:10.387Z,45.80
2023-11-12T18:02:40.825Z,54.38
2023-11-12T18:05:07.703Z,52.28
2023-11-12T18:07:34.537Z,58.38
2023-11-12T18:10:03.367Z,62.50
2023-11-12T18:12:30.274Z,52.80
2023-11-12T18:14:58.352Z,47.60
2023-11-12T18:17:26.562Z,40.67
2023-11-12T18:19:53.238Z,47.22
2023-11-12T18:22:21.566Z,41.05
2023-11-12T18:24:49.261Z,70.85
2023-11-12T18:27:16.033Z,48.63
2023-11-12T18:29:42.675Z,43.60
2023-11-12T18:32:09.358Z,52.85
2023-11-12T18:34:36.669Z,57.08
2023-11-12T18:37:03.359Z,56.60
2023-11-12T18:39:31.234Z,46.88
2023-11-12T18:41:57.990Z,73.72
2023-11-12T18:44:25.954Z,56.65
2023-11-12T18:46:52.622Z,42.47
2023-11-12T18:49:19.256Z,41.42
2023-11-12T18:51:46.104Z,75.97
2023-11-12T18:54:12.733Z,45.90
2023-11-12T18:56:39.899Z,46.35
2023-11-12T18:59:11.317Z,45.30
2023-11-12T19:01:40.285Z,49.60
2023-11-12T19:04:07.534Z,41.90
2023-11-12T19:06:37.920Z,65.88
2023-11-12T19:09:05.228Z,41.03
2023-11-12T19:11:33.097Z,38.67
2023-11-12T19:14:02.794Z,42.92
2023-11-12T19:16:29.664Z,38.90
2023-11-12T19:18:59.855Z,45.90
2023-11-12T19:21:27.526Z,36.70
2023-11-12T19:23:54.295Z,44.88
2023-11-12T19:26:22.648Z,47.70
2023-11-12T19:28:49.509Z,41.25
2023-11-12T19:31:27.907Z,43.10
2023-11-12T19:33:59.569Z,52.75
2023-11-12T19:36:26.220Z,47.67
2023-11-12T19:38:52.856Z,79.47
2023-11-12T19:41:19.657Z,98.78
2023-11-12T19:43:46.399Z,64.20
2023-11-12T19:46:14.497Z,48.78
2023-11-12T19:48:41.953Z,85.10
2023-11-12T19:51:08.602Z,39.92
2023-11-12T19:53:35.308Z,49.45
2023-11-12T19:56:04.669Z,33.40
2023-11-12T19:58:31.402Z,49.40
2023-11-12T20:00:58.618Z,53.30
2023-11-12T20:03:25.520Z,45.17
2023-11-12T20:05:52.322Z,38.65
2023-11-12T20:08:18.963Z,35.58
2023-11-12T20:10:48.266Z,55.17
2023-11-12T20:13:15.308Z,53.88
2023-11-12T20:15:42.289Z,58.25
2023-11-12T20:18:10.690Z,41.80
2023-11-12T20:20:39.558Z,46.50
2023-11-12T20:23:08.830Z,36.58
2023-11-12T20:25:36.610Z,47.00
2023-11-12T20:28:04.821Z,45.30
2023-11-12T20:30:37.538Z,42.53
2023-11-12T20:33:04.387Z,31.30
2023-11-12T20:35:31.113Z,34.05
2023-11-12T20:38:00.321Z,48.78
2023-11-12T20:40:31.473Z,37.45
2023-11-12T20:42:58.128Z,45.70
2023-11-12T20:45:26.496Z,44.53
2023-11-12T20:47:53.429Z,41.08
2023-11-12T20:50:20.551Z,35.65
2023-11-12T20:52:47.711Z,47.97
2023-11-12T20:55:17.333Z,51.38
2023-11-12T20:57:48.108Z,84.22
2023-11-12T21:00:17.760Z,42.70
2023-11-12T21:02:44.707Z,44.72
2023-11-12T21:05:11.569Z,41.22
2023-11-12T21:07:38.198Z,42.67
2023-11-12T21:10:07.262Z,44.25
2023-11-12T21:12:33.979Z,53.45
2023-11-12T21:15:02.493Z,54.75
2023-11-12T21:17:31.937Z,52.17
2023-11-12T21:19:59.780Z,42.00
2023-11-12T21:22:26.995Z,45.78
2023-11-12T21:24:54.004Z,56.50
2023-11-12T21:27:20.667Z,53.47
2023-11-12T21:29:48.375Z,91.70
2023-11-12T21:32:15.439Z,38.17
2023-11-12T21:34:42.116Z,62.83
2023-11-12T21:37:08.796Z,57.00
2023-11-12T21:39:38.706Z,62.40
2023-11-12T21:42:08.600Z,52.00
2023-11-12T21:44:36.561Z,49.05
2023-11-12T21:47:04.162Z,41.88
2023-11-12T21:49:31.116Z,41.55
2023-11-12T21:51:58.815Z,68.95
2023-11-12T21:54:25.757Z,47.25
2023-11-12T21:56:53.141Z,51.88
2023-11-12T21:59:21.174Z,51.58
2023-11-12T22:01:49.615Z,55.60
2023-11-12T22:04:17.061Z,56.17
2023-11-12T22:06:43.741Z,87.40
2023-11-12T22:09:15.177Z,52.65
2023-11-12T22:11:45.761Z,58.10
2023-11-12T22:14:13.032Z,46.92
2023-11-12T22:16:40.765Z,57.97
2023-11-12T22:19:08.098Z,45.33
2023-11-12T22:21:35.504Z,59.17
2023-11-12T22:24:02.959Z,52.65
2023-11-12T22:26:30.105Z,47.75
2023-11-12T22:28:56.840Z,43.10
2023-11-12T22:31:24.281Z,58.60
2023-11-12T22:33:51.941Z,95.07
2023-11-12T22:36:19.303Z,55.65
2023-11-12T22:38:46.230Z,56.53
2023-11-12T22:41:13.384Z,49.78
2023-11-12T22:43:40.367Z,43.55
2023-11-12T22:46:09.792Z,46.28
2023-11-12T22:48:36.754Z,70.78
2023-11-12T22:51:03.805Z,44.20
2023-11-12T22:53:30.577Z,44.42
2023-11-12T22:55:57.229Z,52.75
2023-11-12T22:58:24.294Z,59.75
2023-11-12T23:00:56.870Z,56.78
2023-11-12T23:03:23.650Z,49.55
2023-11-12T23:05:50.347Z,57.20
2023-11-12T23:08:17.028Z,41.35
2023-11-12T23:10:44.672Z,56.25
2023-11-12T23:13:13.381Z,59.85
2023-11-12T23:15:40.972Z,71.43
2023-11-12T23:18:08.461Z,54.65
2023-11-12T23:20:35.856Z,47.58
2023-11-12T23:23:03.483Z,46.00
2023-11-12T23:25:31.075Z,41.40
2023-11-12T23:27:58.349Z,49.75
2023-11-12T23:30:25.282Z,37.28
2023-11-12T23:32:52.913Z,47.55
2023-11-12T23:35:19.695Z,53.67
2023-11-12T23:37:47.763Z,61.83
2023-11-12T23:40:17.571Z,47.20
2023-11-12T23:42:44.762Z,82.80
2023-11-12T23:45:12.258Z,42.13
2023-11-12T23:47:40.231Z,40.00
2023-11-12T23:50:07.258Z,35.00
2023-11-12T23:52:34.595Z,38.67
2023-11-12T23:55:01.335Z,46.80
2023-11-12T23:57:28.322Z,34.38
2023-11-12T23:59:55.001Z,41.38
